sensor_id;sensor_type;location;lat;lon;timestamp;temperature;humidity
14755;DHT22;7469;50.906;6.952;2022-07-23T00:00:54;19.70;99.90
14755;DHT22;7469;50.906;6.952;2022-07-23T00:03:22;19.70;99.90
14755;DHT22;7469;50.906;6.952;2022-07-23T00:05:51;19.60;99.90
14755;DHT22;7469;50.906;6.952;2022-07-23T00:08:19;19.60;99.90
14755;DHT22;7469;50.906;6.952;2022-07-23T00:10:48;19.60;99.90
14755;DHT22;7469;50.906;6.952;2022-07-23T00:13:17;19.50;99.90
14755;DHT22;7469;50.906;6.952;2022-07-23T00:15:45;19.50;99.90
14755;DHT22;7469;50.906;6.952;2022-07-23T00:18:13;19.50;99.90
14755;DHT22;7469;50.906;6.952;2022-07-23T00:20:41;19.50;99.90
14755;DHT22;7469;50.906;6.952;2022-07-23T00:23:09;19.50;99.90
14755;DHT22;7469;50.906;6.952;2022-07-23T00:25:37;19.40;99.90
14755;DHT22;7469;50.906;6.952;2022-07-23T00:28:05;19.40;99.90
14755;DHT22;7469;50.906;6.952;2022-07-23T00:30:35;19.30;99.90
14755;DHT22;7469;50.906;6.952;2022-07-23T00:33:05;19.30;99.90
14755;DHT22;7469;50.906;6.952;2022-07-23T00:35:36;19.20;99.90
14755;DHT22;7469;50.906;6.952;2022-07-23T00:38:08;19.20;99.90
14755;DHT22;7469;50.906;6.952;2022-07-23T00:40:38;19.10;99.90
14755;DHT22;7469;50.906;6.952;2022-07-23T00:43:06;19.10;99.90
14755;DHT22;7469;50.906;6.952;2022-07-23T00:45:35;19.00;99.90
14755;DHT22;7469;50.906;6.952;2022-07-23T00:48:04;19.00;99.90
14755;DHT22;7469;50.906;6.952;2022-07-23T00:50:32;18.90;99.90
14755;DHT22;7469;50.906;6.952;2022-07-23T00:53:00;18.80;99.90
14755;DHT22;7469;50.906;6.952;2022-07-23T00:55:28;18.80;99.90
14755;DHT22;7469;50.906;6.952;2022-07-23T00:57:57;18.80;99.90
14755;DHT22;7469;50.906;6.952;2022-07-23T01:00:26;18.70;99.90
14755;DHT22;7469;50.906;6.952;2022-07-23T01:02:56;18.70;99.90
14755;DHT22;7469;50.906;6.952;2022-07-23T01:05:24;18.70;99.90
14755;DHT22;7469;50.906;6.952;2022-07-23T01:07:52;18.70;99.90
14755;DHT22;7469;50.906;6.952;2022-07-23T01:10:23;18.70;99.90
14755;DHT22;7469;50.906;6.952;2022-07-23T01:13:09;18.60;99.90
14755;DHT22;7469;50.906;6.952;2022-07-23T01:15:38;18.60;99.90
14755;DHT22;7469;50.906;6.952;2022-07-23T01:18:08;18.50;99.90
14755;DHT22;7469;50.906;6.952;2022-07-23T01:20:37;18.50;99.90
14755;DHT22;7469;50.906;6.952;2022-07-23T01:23:07;18.50;99.90
14755;DHT22;7469;50.906;6.952;2022-07-23T01:25:35;18.50;99.90
14755;DHT22;7469;50.906;6.952;2022-07-23T01:28:03;18.40;99.90
14755;DHT22;7469;50.906;6.952;2022-07-23T01:30:31;18.40;99.90
14755;DHT22;7469;50.906;6.952;2022-07-23T01:33:00;18.40;99.90
14755;DHT22;7469;50.906;6.952;2022-07-23T01:35:28;18.30;99.90
14755;DHT22;7469;50.906;6.952;2022-07-23T01:37:56;18.30;99.90
14755;DHT22;7469;50.906;6.952;2022-07-23T01:40:25;18.30;99.90
14755;DHT22;7469;50.906;6.952;2022-07-23T01:42:53;18.30;99.90
14755;DHT22;7469;50.906;6.952;2022-07-23T01:45:22;18.30;99.90
14755;DHT22;7469;50.906;6.952;2022-07-23T01:47:50;18.20;99.90
14755;DHT22;7469;50.906;6.952;2022-07-23T01:50:18;18.30;99.90
14755;DHT22;7469;50.906;6.952;2022-07-23T01:52:46;18.20;99.90
14755;DHT22;7469;50.906;6.952;2022-07-23T01:55:14;18.20;99.90
14755;DHT22;7469;50.906;6.952;2022-07-23T01:57:46;18.10;99.90
14755;DHT22;7469;50.906;6.952;2022-07-23T02:00:15;18.10;99.90
14755;DHT22;7469;50.906;6.952;2022-07-23T02:02:43;18.10;99.90
14755;DHT22;7469;50.906;6.952;2022-07-23T02:05:11;18.10;99.90
14755;DHT22;7469;50.906;6.952;2022-07-23T02:07:40;18.10;99.90
14755;DHT22;7469;50.906;6.952;2022-07-23T02:10:09;18.10;99.90
14755;DHT22;7469;50.906;6.952;2022-07-23T02:12:37;18.10;99.90
14755;DHT22;7469;50.906;6.952;2022-07-23T02:15:07;18.10;99.90
14755;DHT22;7469;50.906;6.952;2022-07-23T02:17:36;18.10;99.90
14755;DHT22;7469;50.906;6.952;2022-07-23T02:20:05;18.10;99.90
14755;DHT22;7469;50.906;6.952;2022-07-23T02:22:33;18.10;99.90
14755;DHT22;7469;50.906;6.952;2022-07-23T02:25:02;18.10;99.90
14755;DHT22;7469;50.906;6.952;2022-07-23T02:27:30;18.00;99.90
14755;DHT22;7469;50.906;6.952;2022-07-23T02:29:58;18.00;99.90
14755;DHT22;7469;50.906;6.952;2022-07-23T02:32:27;17.90;99.90
14755;DHT22;7469;50.906;6.952;2022-07-23T02:34:55;17.90;99.90
14755;DHT22;7469;50.906;6.952;2022-07-23T02:37:24;17.90;99.90
14755;DHT22;7469;50.906;6.952;2022-07-23T02:39:52;17.90;99.90
14755;DHT22;7469;50.906;6.952;2022-07-23T02:42:22;17.90;99.90
14755;DHT22;7469;50.906;6.952;2022-07-23T02:44:50;17.90;99.90
14755;DHT22;7469;50.906;6.952;2022-07-23T02:47:19;17.90;99.90
14755;DHT22;7469;50.906;6.952;2022-07-23T02:49:48;17.90;99.90
14755;DHT22;7469;50.906;6.952;2022-07-23T02:52:16;17.80;99.90
14755;DHT22;7469;50.906;6.952;2022-07-23T02:54:44;17.80;99.90
14755;DHT22;7469;50.906;6.952;2022-07-23T02:57:12;17.80;99.90
14755;DHT22;7469;50.906;6.952;2022-07-23T02:59:40;17.80;99.90
14755;DHT22;7469;50.906;6.952;2022-07-23T03:02:08;17.70;99.90
14755;DHT22;7469;50.906;6.952;2022-07-23T03:04:36;17.60;99.90
14755;DHT22;7469;50.906;6.952;2022-07-23T03:07:06;17.50;99.90
14755;DHT22;7469;50.906;6.952;2022-07-23T03:09:34;17.50;99.90
14755;DHT22;7469;50.906;6.952;2022-07-23T03:12:02;17.40;99.90
14755;DHT22;7469;50.906;6.952;2022-07-23T03:14:33;17.40;99.90
14755;DHT22;7469;50.906;6.952;2022-07-23T03:17:01;17.30;99.90
14755;DHT22;7469;50.906;6.952;2022-07-23T03:19:29;17.30;99.90
14755;DHT22;7469;50.906;6.952;2022-07-23T03:21:57;17.30;99.90
14755;DHT22;7469;50.906;6.952;2022-07-23T03:24:26;17.20;99.90
14755;DHT22;7469;50.906;6.952;2022-07-23T03:27:15;17.20;99.90
14755;DHT22;7469;50.906;6.952;2022-07-23T03:29:43;17.10;99.90
14755;DHT22;7469;50.906;6.952;2022-07-23T03:32:11;17.10;99.90
14755;DHT22;7469;50.906;6.952;2022-07-23T03:34:39;17.00;99.90
14755;DHT22;7469;50.906;6.952;2022-07-23T03:37:08;17.00;99.90
14755;DHT22;7469;50.906;6.952;2022-07-23T03:39:38;17.00;99.90
14755;DHT22;7469;50.906;6.952;2022-07-23T03:42:06;16.90;99.90
14755;DHT22;7469;50.906;6.952;2022-07-23T03:44:34;17.00;99.90
14755;DHT22;7469;50.906;6.952;2022-07-23T03:47:05;16.90;99.90
14755;DHT22;7469;50.906;6.952;2022-07-23T03:49:35;16.80;99.90
14755;DHT22;7469;50.906;6.952;2022-07-23T03:52:04;16.80;99.90
14755;DHT22;7469;50.906;6.952;2022-07-23T03:54:32;16.80;99.90
14755;DHT22;7469;50.906;6.952;2022-07-23T03:57:01;16.80;99.90
14755;DHT22;7469;50.906;6.952;2022-07-23T03:59:30;16.70;99.90
14755;DHT22;7469;50.906;6.952;2022-07-23T04:01:58;16.70;99.90
14755;DHT22;7469;50.906;6.952;2022-07-23T04:04:26;16.70;99.90
14755;DHT22;7469;50.906;6.952;2022-07-23T04:06:54;16.70;99.90
14755;DHT22;7469;50.906;6.952;2022-07-23T04:09:22;16.70;99.90
14755;DHT22;7469;50.906;6.952;2022-07-23T04:11:50;16.70;99.90
14755;DHT22;7469;50.906;6.952;2022-07-23T04:14:19;16.70;99.90
14755;DHT22;7469;50.906;6.952;2022-07-23T04:16:47;16.60;99.90
14755;DHT22;7469;50.906;6.952;2022-07-23T04:19:15;16.60;99.90
14755;DHT22;7469;50.906;6.952;2022-07-23T04:21:44;16.60;99.90
14755;DHT22;7469;50.906;6.952;2022-07-23T04:24:12;16.60;99.90
14755;DHT22;7469;50.906;6.952;2022-07-23T04:26:40;16.60;99.90
14755;DHT22;7469;50.906;6.952;2022-07-23T04:29:08;16.60;99.90
14755;DHT22;7469;50.906;6.952;2022-07-23T04:31:37;16.60;99.90
14755;DHT22;7469;50.906;6.952;2022-07-23T04:34:05;16.70;99.90
14755;DHT22;7469;50.906;6.952;2022-07-23T04:36:33;16.70;99.90
14755;DHT22;7469;50.906;6.952;2022-07-23T04:39:01;16.70;99.90
14755;DHT22;7469;50.906;6.952;2022-07-23T04:41:30;16.80;99.90
14755;DHT22;7469;50.906;6.952;2022-07-23T04:43:58;16.80;99.90
14755;DHT22;7469;50.906;6.952;2022-07-23T04:46:26;16.80;99.90
14755;DHT22;7469;50.906;6.952;2022-07-23T04:48:56;16.80;99.90
14755;DHT22;7469;50.906;6.952;2022-07-23T04:51:24;16.80;99.90
14755;DHT22;7469;50.906;6.952;2022-07-23T04:53:52;16.90;99.90
14755;DHT22;7469;50.906;6.952;2022-07-23T04:56:20;16.90;99.90
14755;DHT22;7469;50.906;6.952;2022-07-23T04:58:48;17.00;99.90
14755;DHT22;7469;50.906;6.952;2022-07-23T05:01:16;17.00;99.90
14755;DHT22;7469;50.906;6.952;2022-07-23T05:03:44;17.00;99.90
14755;DHT22;7469;50.906;6.952;2022-07-23T05:06:14;17.10;99.90
14755;DHT22;7469;50.906;6.952;2022-07-23T05:08:42;17.10;99.90
14755;DHT22;7469;50.906;6.952;2022-07-23T05:11:10;17.10;99.90
14755;DHT22;7469;50.906;6.952;2022-07-23T05:13:38;17.20;99.90
14755;DHT22;7469;50.906;6.952;2022-07-23T05:16:06;17.20;99.90
14755;DHT22;7469;50.906;6.952;2022-07-23T05:18:36;17.30;99.90
14755;DHT22;7469;50.906;6.952;2022-07-23T05:21:05;17.40;99.90
14755;DHT22;7469;50.906;6.952;2022-07-23T05:23:34;17.50;99.90
14755;DHT22;7469;50.906;6.952;2022-07-23T05:26:02;17.60;99.90
14755;DHT22;7469;50.906;6.952;2022-07-23T05:28:30;17.70;99.90
14755;DHT22;7469;50.906;6.952;2022-07-23T05:31:00;17.80;99.90
14755;DHT22;7469;50.906;6.952;2022-07-23T05:33:28;18.00;99.90
14755;DHT22;7469;50.906;6.952;2022-07-23T05:36:00;18.10;99.90
14755;DHT22;7469;50.906;6.952;2022-07-23T05:38:29;18.20;99.90
14755;DHT22;7469;50.906;6.952;2022-07-23T05:40:59;18.40;99.90
14755;DHT22;7469;50.906;6.952;2022-07-23T05:43:27;18.50;99.90
14755;DHT22;7469;50.906;6.952;2022-07-23T05:45:55;18.60;99.90
14755;DHT22;7469;50.906;6.952;2022-07-23T05:48:23;18.60;99.90
14755;DHT22;7469;50.906;6.952;2022-07-23T05:50:52;18.60;99.90
14755;DHT22;7469;50.906;6.952;2022-07-23T05:53:20;18.60;99.90
14755;DHT22;7469;50.906;6.952;2022-07-23T05:55:48;18.70;99.90
14755;DHT22;7469;50.906;6.952;2022-07-23T05:58:17;18.70;99.90
14755;DHT22;7469;50.906;6.952;2022-07-23T06:00:48;18.80;99.90
14755;DHT22;7469;50.906;6.952;2022-07-23T06:03:17;18.90;99.90
14755;DHT22;7469;50.906;6.952;2022-07-23T06:05:45;18.90;99.90
14755;DHT22;7469;50.906;6.952;2022-07-23T06:08:13;19.10;99.90
14755;DHT22;7469;50.906;6.952;2022-07-23T06:10:41;19.10;99.90
14755;DHT22;7469;50.906;6.952;2022-07-23T06:13:09;19.20;99.90
14755;DHT22;7469;50.906;6.952;2022-07-23T06:15:38;19.30;99.90
14755;DHT22;7469;50.906;6.952;2022-07-23T06:18:06;19.40;99.90
14755;DHT22;7469;50.906;6.952;2022-07-23T06:20:34;19.40;99.90
14755;DHT22;7469;50.906;6.952;2022-07-23T06:23:03;19.60;99.90
14755;DHT22;7469;50.906;6.952;2022-07-23T06:25:31;19.60;99.90
14755;DHT22;7469;50.906;6.952;2022-07-23T06:27:59;19.70;99.90
14755;DHT22;7469;50.906;6.952;2022-07-23T06:30:27;19.70;99.90
14755;DHT22;7469;50.906;6.952;2022-07-23T06:32:56;19.80;99.90
14755;DHT22;7469;50.906;6.952;2022-07-23T06:35:25;19.80;99.90
14755;DHT22;7469;50.906;6.952;2022-07-23T06:37:53;19.90;99.90
14755;DHT22;7469;50.906;6.952;2022-07-23T06:40:21;20.00;99.90
14755;DHT22;7469;50.906;6.952;2022-07-23T06:42:49;20.10;99.90
14755;DHT22;7469;50.906;6.952;2022-07-23T06:45:17;20.10;99.90
14755;DHT22;7469;50.906;6.952;2022-07-23T06:47:45;20.10;99.90
14755;DHT22;7469;50.906;6.952;2022-07-23T06:50:14;20.10;99.90
14755;DHT22;7469;50.906;6.952;2022-07-23T06:52:42;20.20;99.90
14755;DHT22;7469;50.906;6.952;2022-07-23T06:55:10;20.20;99.90
14755;DHT22;7469;50.906;6.952;2022-07-23T06:57:39;20.20;99.90
14755;DHT22;7469;50.906;6.952;2022-07-23T07:00:08;20.30;99.90
14755;DHT22;7469;50.906;6.952;2022-07-23T07:02:36;20.40;99.90
14755;DHT22;7469;50.906;6.952;2022-07-23T07:05:05;20.40;99.90
14755;DHT22;7469;50.906;6.952;2022-07-23T07:07:34;20.50;99.90
14755;DHT22;7469;50.906;6.952;2022-07-23T07:10:02;20.60;99.90
14755;DHT22;7469;50.906;6.952;2022-07-23T07:12:30;20.70;99.90
14755;DHT22;7469;50.906;6.952;2022-07-23T07:14:59;20.80;99.90
14755;DHT22;7469;50.906;6.952;2022-07-23T07:17:27;20.80;99.90
14755;DHT22;7469;50.906;6.952;2022-07-23T07:19:55;21.00;99.90
14755;DHT22;7469;50.906;6.952;2022-07-23T07:22:23;21.10;99.90
14755;DHT22;7469;50.906;6.952;2022-07-23T07:24:52;21.30;99.90
14755;DHT22;7469;50.906;6.952;2022-07-23T07:27:20;21.40;99.90
14755;DHT22;7469;50.906;6.952;2022-07-23T07:29:48;21.60;99.90
14755;DHT22;7469;50.906;6.952;2022-07-23T07:32:16;21.60;99.90
14755;DHT22;7469;50.906;6.952;2022-07-23T07:35:04;21.70;99.90
14755;DHT22;7469;50.906;6.952;2022-07-23T07:37:33;21.80;99.90
14755;DHT22;7469;50.906;6.952;2022-07-23T07:40:03;22.00;99.90
14755;DHT22;7469;50.906;6.952;2022-07-23T07:42:31;22.20;99.90
14755;DHT22;7469;50.906;6.952;2022-07-23T07:44:59;22.40;99.90
14755;DHT22;7469;50.906;6.952;2022-07-23T07:47:27;22.50;99.90
14755;DHT22;7469;50.906;6.952;2022-07-23T07:49:55;22.50;99.90
14755;DHT22;7469;50.906;6.952;2022-07-23T07:52:23;22.60;99.90
14755;DHT22;7469;50.906;6.952;2022-07-23T07:54:51;22.70;99.90
14755;DHT22;7469;50.906;6.952;2022-07-23T07:57:23;22.90;99.90
14755;DHT22;7469;50.906;6.952;2022-07-23T07:59:51;23.00;99.90
14755;DHT22;7469;50.906;6.952;2022-07-23T08:02:22;23.30;99.90
14755;DHT22;7469;50.906;6.952;2022-07-23T08:04:51;23.30;99.90
14755;DHT22;7469;50.906;6.952;2022-07-23T08:07:19;23.30;99.90
14755;DHT22;7469;50.906;6.952;2022-07-23T08:09:47;23.20;99.90
14755;DHT22;7469;50.906;6.952;2022-07-23T08:12:15;23.20;99.90
14755;DHT22;7469;50.906;6.952;2022-07-23T08:14:44;23.20;99.90
14755;DHT22;7469;50.906;6.952;2022-07-23T08:17:12;23.30;99.90
14755;DHT22;7469;50.906;6.952;2022-07-23T08:19:41;23.50;99.90
14755;DHT22;7469;50.906;6.952;2022-07-23T08:22:09;23.70;99.90
14755;DHT22;7469;50.906;6.952;2022-07-23T08:24:37;23.90;99.90
14755;DHT22;7469;50.906;6.952;2022-07-23T08:27:05;24.00;99.90
14755;DHT22;7469;50.906;6.952;2022-07-23T08:29:33;24.20;99.90
14755;DHT22;7469;50.906;6.952;2022-07-23T08:32:03;24.30;99.90
14755;DHT22;7469;50.906;6.952;2022-07-23T08:34:51;24.30;99.90
14755;DHT22;7469;50.906;6.952;2022-07-23T08:37:19;24.40;99.90
14755;DHT22;7469;50.906;6.952;2022-07-23T08:39:47;24.60;99.90
14755;DHT22;7469;50.906;6.952;2022-07-23T08:42:16;24.80;99.90
14755;DHT22;7469;50.906;6.952;2022-07-23T08:44:45;24.90;99.90
14755;DHT22;7469;50.906;6.952;2022-07-23T08:47:14;25.10;99.90
14755;DHT22;7469;50.906;6.952;2022-07-23T08:49:44;25.40;99.90
14755;DHT22;7469;50.906;6.952;2022-07-23T08:52:14;25.60;99.90
14755;DHT22;7469;50.906;6.952;2022-07-23T08:54:43;25.70;99.90
14755;DHT22;7469;50.906;6.952;2022-07-23T08:57:11;25.80;99.90
14755;DHT22;7469;50.906;6.952;2022-07-23T08:59:39;26.30;99.90
14755;DHT22;7469;50.906;6.952;2022-07-23T09:02:07;27.00;99.90
14755;DHT22;7469;50.906;6.952;2022-07-23T09:04:36;27.70;99.90
14755;DHT22;7469;50.906;6.952;2022-07-23T09:07:05;28.20;99.90
14755;DHT22;7469;50.906;6.952;2022-07-23T09:09:33;28.70;98.80
14755;DHT22;7469;50.906;6.952;2022-07-23T09:12:04;29.20;96.90
14755;DHT22;7469;50.906;6.952;2022-07-23T09:14:40;30.00;94.90
14755;DHT22;7469;50.906;6.952;2022-07-23T09:17:10;31.10;92.10
14755;DHT22;7469;50.906;6.952;2022-07-23T09:19:41;32.80;86.20
14755;DHT22;7469;50.906;6.952;2022-07-23T09:22:22;35.00;72.70
14755;DHT22;7469;50.906;6.952;2022-07-23T09:25:06;37.00;58.30
14755;DHT22;7469;50.906;6.952;2022-07-23T09:27:50;38.70;48.60
14755;DHT22;7469;50.906;6.952;2022-07-23T09:30:22;40.00;42.50
14755;DHT22;7469;50.906;6.952;2022-07-23T09:33:08;41.20;36.80
14755;DHT22;7469;50.906;6.952;2022-07-23T09:35:49;42.20;33.00
14755;DHT22;7469;50.906;6.952;2022-07-23T09:38:18;43.20;29.50
14755;DHT22;7469;50.906;6.952;2022-07-23T09:41:04;44.10;27.70
14755;DHT22;7469;50.906;6.952;2022-07-23T09:43:33;44.80;26.50
14755;DHT22;7469;50.906;6.952;2022-07-23T09:46:16;45.10;25.40
14755;DHT22;7469;50.906;6.952;2022-07-23T09:48:45;44.90;24.70
14755;DHT22;7469;50.906;6.952;2022-07-23T09:51:15;44.30;24.30
14755;DHT22;7469;50.906;6.952;2022-07-23T09:53:45;44.60;23.90
14755;DHT22;7469;50.906;6.952;2022-07-23T09:56:14;44.90;22.90
14755;DHT22;7469;50.906;6.952;2022-07-23T09:58:44;45.20;22.20
14755;DHT22;7469;50.906;6.952;2022-07-23T10:01:14;44.90;21.70
14755;DHT22;7469;50.906;6.952;2022-07-23T10:03:43;44.90;21.50
14755;DHT22;7469;50.906;6.952;2022-07-23T10:06:13;45.00;21.60
14755;DHT22;7469;50.906;6.952;2022-07-23T10:08:44;45.30;21.40
14755;DHT22;7469;50.906;6.952;2022-07-23T10:11:15;45.40;21.10
14755;DHT22;7469;50.906;6.952;2022-07-23T10:13:43;45.50;20.80
14755;DHT22;7469;50.906;6.952;2022-07-23T10:16:20;45.80;21.10
14755;DHT22;7469;50.906;6.952;2022-07-23T10:18:53;46.00;20.20
14755;DHT22;7469;50.906;6.952;2022-07-23T10:21:26;46.30;20.10
14755;DHT22;7469;50.906;6.952;2022-07-23T10:24:08;46.00;19.40
14755;DHT22;7469;50.906;6.952;2022-07-23T10:26:44;45.50;19.70
14755;DHT22;7469;50.906;6.952;2022-07-23T10:29:26;45.30;19.80
14755;DHT22;7469;50.906;6.952;2022-07-23T10:32:02;45.30;19.90
14755;DHT22;7469;50.906;6.952;2022-07-23T10:34:40;44.90;19.30
14755;DHT22;7469;50.906;6.952;2022-07-23T10:37:14;44.80;19.40
14755;DHT22;7469;50.906;6.952;2022-07-23T10:40:08;44.90;19.20
14755;DHT22;7469;50.906;6.952;2022-07-23T10:42:37;44.80;19.40
14755;DHT22;7469;50.906;6.952;2022-07-23T10:45:25;45.10;18.90
14755;DHT22;7469;50.906;6.952;2022-07-23T10:47:55;45.10;18.60
14755;DHT22;7469;50.906;6.952;2022-07-23T10:50:26;45.10;18.70
14755;DHT22;7469;50.906;6.952;2022-07-23T10:53:11;44.60;19.30
14755;DHT22;7469;50.906;6.952;2022-07-23T10:55:47;44.50;19.40
14755;DHT22;7469;50.906;6.952;2022-07-23T10:58:20;44.70;19.40
14755;DHT22;7469;50.906;6.952;2022-07-23T11:00:49;45.00;19.00
14755;DHT22;7469;50.906;6.952;2022-07-23T11:03:34;45.30;19.00
14755;DHT22;7469;50.906;6.952;2022-07-23T11:06:05;45.50;18.90
14755;DHT22;7469;50.906;6.952;2022-07-23T11:08:34;44.60;18.50
14755;DHT22;7469;50.906;6.952;2022-07-23T11:11:11;42.60;19.10
14755;DHT22;7469;50.906;6.952;2022-07-23T11:13:47;40.40;20.60
14755;DHT22;7469;50.906;6.952;2022-07-23T11:16:24;39.20;21.50
14755;DHT22;7469;50.906;6.952;2022-07-23T11:19:06;38.30;22.10
14755;DHT22;7469;50.906;6.952;2022-07-23T11:24:27;36.40;23.80
14755;DHT22;7469;50.906;6.952;2022-07-23T11:27:01;35.70;24.80
14755;DHT22;7469;50.906;6.952;2022-07-23T11:29:46;35.40;25.50
14755;DHT22;7469;50.906;6.952;2022-07-23T11:35:24;34.30;27.10
14755;DHT22;7469;50.906;6.952;2022-07-23T11:38:02;33.70;27.90
14755;DHT22;7469;50.906;6.952;2022-07-23T11:40:30;33.50;28.50
14755;DHT22;7469;50.906;6.952;2022-07-23T11:43:02;33.10;29.20
14755;DHT22;7469;50.906;6.952;2022-07-23T11:45:32;32.80;29.50
14755;DHT22;7469;50.906;6.952;2022-07-23T11:48:01;32.50;29.60
14755;DHT22;7469;50.906;6.952;2022-07-23T11:50:30;32.20;29.50
14755;DHT22;7469;50.906;6.952;2022-07-23T11:52:58;31.80;29.70
14755;DHT22;7469;50.906;6.952;2022-07-23T11:55:27;31.50;30.80
14755;DHT22;7469;50.906;6.952;2022-07-23T11:57:55;31.10;31.20
14755;DHT22;7469;50.906;6.952;2022-07-23T12:00:28;30.90;31.10
14755;DHT22;7469;50.906;6.952;2022-07-23T12:02:58;30.50;31.40
14755;DHT22;7469;50.906;6.952;2022-07-23T12:05:29;30.10;31.50
14755;DHT22;7469;50.906;6.952;2022-07-23T12:07:59;29.90;31.90
14755;DHT22;7469;50.906;6.952;2022-07-23T12:10:29;29.60;32.60
14755;DHT22;7469;50.906;6.952;2022-07-23T12:12:59;29.50;33.40
14755;DHT22;7469;50.906;6.952;2022-07-23T12:15:31;29.20;33.80
14755;DHT22;7469;50.906;6.952;2022-07-23T12:18:00;29.10;33.90
14755;DHT22;7469;50.906;6.952;2022-07-23T12:20:30;28.80;33.90
14755;DHT22;7469;50.906;6.952;2022-07-23T12:23:01;28.50;34.40
14755;DHT22;7469;50.906;6.952;2022-07-23T12:25:30;28.50;35.60
14755;DHT22;7469;50.906;6.952;2022-07-23T12:28:01;28.40;35.60
14755;DHT22;7469;50.906;6.952;2022-07-23T12:30:33;28.50;35.10
14755;DHT22;7469;50.906;6.952;2022-07-23T12:33:02;28.60;34.40
14755;DHT22;7469;50.906;6.952;2022-07-23T12:35:34;28.60;34.00
14755;DHT22;7469;50.906;6.952;2022-07-23T12:38:04;28.60;34.00
14755;DHT22;7469;50.906;6.952;2022-07-23T12:40:34;28.60;34.10
14755;DHT22;7469;50.906;6.952;2022-07-23T12:43:05;28.60;34.80
14755;DHT22;7469;50.906;6.952;2022-07-23T12:45:49;28.50;35.40
14755;DHT22;7469;50.906;6.952;2022-07-23T12:48:19;28.60;34.80
14755;DHT22;7469;50.906;6.952;2022-07-23T12:50:59;28.60;35.10
14755;DHT22;7469;50.906;6.952;2022-07-23T12:53:29;28.70;35.00
14755;DHT22;7469;50.906;6.952;2022-07-23T12:56:01;28.80;35.20
14755;DHT22;7469;50.906;6.952;2022-07-23T12:58:47;28.80;35.20
14755;DHT22;7469;50.906;6.952;2022-07-23T13:01:27;28.70;34.90
14755;DHT22;7469;50.906;6.952;2022-07-23T13:04:01;28.70;34.60
14755;DHT22;7469;50.906;6.952;2022-07-23T13:06:40;28.70;34.20
14755;DHT22;7469;50.906;6.952;2022-07-23T13:09:10;28.70;33.80
14755;DHT22;7469;50.906;6.952;2022-07-23T13:11:39;28.80;34.40
14755;DHT22;7469;50.906;6.952;2022-07-23T13:14:07;28.80;35.50
14755;DHT22;7469;50.906;6.952;2022-07-23T13:16:37;28.90;35.60
14755;DHT22;7469;50.906;6.952;2022-07-23T13:19:05;29.10;35.60
14755;DHT22;7469;50.906;6.952;2022-07-23T13:21:39;29.30;35.00
14755;DHT22;7469;50.906;6.952;2022-07-23T13:24:08;29.40;34.60
14755;DHT22;7469;50.906;6.952;2022-07-23T13:26:37;29.40;34.30
14755;DHT22;7469;50.906;6.952;2022-07-23T13:29:05;29.40;33.90
14755;DHT22;7469;50.906;6.952;2022-07-23T13:31:38;29.40;34.20
14755;DHT22;7469;50.906;6.952;2022-07-23T13:34:07;29.50;34.30
14755;DHT22;7469;50.906;6.952;2022-07-23T13:36:35;29.70;34.00
14755;DHT22;7469;50.906;6.952;2022-07-23T13:39:04;29.80;33.30
14755;DHT22;7469;50.906;6.952;2022-07-23T13:41:36;29.80;33.20
14755;DHT22;7469;50.906;6.952;2022-07-23T13:44:04;29.90;33.10
14755;DHT22;7469;50.906;6.952;2022-07-23T13:46:33;30.00;32.70
14755;DHT22;7469;50.906;6.952;2022-07-23T13:49:03;30.10;32.80
14755;DHT22;7469;50.906;6.952;2022-07-23T13:51:32;30.30;32.70
14755;DHT22;7469;50.906;6.952;2022-07-23T13:54:00;30.30;32.50
14755;DHT22;7469;50.906;6.952;2022-07-23T13:56:29;30.40;32.60
14755;DHT22;7469;50.906;6.952;2022-07-23T13:58:57;30.50;32.30
14755;DHT22;7469;50.906;6.952;2022-07-23T14:01:26;30.50;32.30
14755;DHT22;7469;50.906;6.952;2022-07-23T14:04:13;30.50;32.70
14755;DHT22;7469;50.906;6.952;2022-07-23T14:06:41;30.50;33.20
14755;DHT22;7469;50.906;6.952;2022-07-23T14:09:09;30.40;33.00
14755;DHT22;7469;50.906;6.952;2022-07-23T14:11:37;30.40;32.90
14755;DHT22;7469;50.906;6.952;2022-07-23T14:14:05;30.50;32.90
14755;DHT22;7469;50.906;6.952;2022-07-23T14:16:34;30.70;32.20
14755;DHT22;7469;50.906;6.952;2022-07-23T14:19:02;30.80;31.70
14755;DHT22;7469;50.906;6.952;2022-07-23T14:21:32;30.90;31.80
14755;DHT22;7469;50.906;6.952;2022-07-23T14:24:00;31.00;31.90
14755;DHT22;7469;50.906;6.952;2022-07-23T14:26:28;30.80;32.10
14755;DHT22;7469;50.906;6.952;2022-07-23T14:28:56;30.90;32.10
14755;DHT22;7469;50.906;6.952;2022-07-23T14:31:26;31.00;31.80
14755;DHT22;7469;50.906;6.952;2022-07-23T14:33:55;31.20;31.70
14755;DHT22;7469;50.906;6.952;2022-07-23T14:36:23;31.40;31.40
14755;DHT22;7469;50.906;6.952;2022-07-23T14:38:53;31.60;30.90
14755;DHT22;7469;50.906;6.952;2022-07-23T14:41:23;31.60;30.50
14755;DHT22;7469;50.906;6.952;2022-07-23T14:43:54;31.70;30.30
14755;DHT22;7469;50.906;6.952;2022-07-23T14:46:22;31.50;30.40
14755;DHT22;7469;50.906;6.952;2022-07-23T14:48:51;31.30;30.50
14755;DHT22;7469;50.906;6.952;2022-07-23T14:51:19;31.10;30.70
14755;DHT22;7469;50.906;6.952;2022-07-23T14:53:48;31.10;30.90
14755;DHT22;7469;50.906;6.952;2022-07-23T14:56:17;31.10;30.90
14755;DHT22;7469;50.906;6.952;2022-07-23T14:58:47;30.90;31.80
14755;DHT22;7469;50.906;6.952;2022-07-23T15:01:15;30.90;31.60
14755;DHT22;7469;50.906;6.952;2022-07-23T15:03:43;30.90;30.80
14755;DHT22;7469;50.906;6.952;2022-07-23T15:06:11;30.90;30.50
14755;DHT22;7469;50.906;6.952;2022-07-23T15:08:40;31.10;30.20
14755;DHT22;7469;50.906;6.952;2022-07-23T15:11:08;31.10;30.30
14755;DHT22;7469;50.906;6.952;2022-07-23T15:13:38;31.10;30.50
14755;DHT22;7469;50.906;6.952;2022-07-23T15:16:08;31.10;30.50
14755;DHT22;7469;50.906;6.952;2022-07-23T15:18:36;31.10;30.30
14755;DHT22;7469;50.906;6.952;2022-07-23T15:21:05;31.00;30.50
14755;DHT22;7469;50.906;6.952;2022-07-23T15:23:34;31.10;30.80
14755;DHT22;7469;50.906;6.952;2022-07-23T15:26:05;31.00;31.00
14755;DHT22;7469;50.906;6.952;2022-07-23T15:28:34;31.10;31.10
14755;DHT22;7469;50.906;6.952;2022-07-23T15:31:04;31.00;31.10
14755;DHT22;7469;50.906;6.952;2022-07-23T15:33:34;30.90;30.90
14755;DHT22;7469;50.906;6.952;2022-07-23T15:36:04;30.80;31.00
14755;DHT22;7469;50.906;6.952;2022-07-23T15:38:33;30.90;31.40
14755;DHT22;7469;50.906;6.952;2022-07-23T15:41:02;30.80;31.00
14755;DHT22;7469;50.906;6.952;2022-07-23T15:43:30;30.80;31.30
14755;DHT22;7469;50.906;6.952;2022-07-23T15:45:58;30.80;31.40
14755;DHT22;7469;50.906;6.952;2022-07-23T15:48:28;30.70;31.50
14755;DHT22;7469;50.906;6.952;2022-07-23T15:50:57;30.70;31.70
14755;DHT22;7469;50.906;6.952;2022-07-23T15:53:25;30.70;31.50
14755;DHT22;7469;50.906;6.952;2022-07-23T15:56:05;30.60;32.00
14755;DHT22;7469;50.906;6.952;2022-07-23T15:58:41;30.50;31.90
14755;DHT22;7469;50.906;6.952;2022-07-23T16:01:10;30.40;32.80
14755;DHT22;7469;50.906;6.952;2022-07-23T16:03:40;30.30;32.20
14755;DHT22;7469;50.906;6.952;2022-07-23T16:06:10;30.20;32.20
14755;DHT22;7469;50.906;6.952;2022-07-23T16:08:45;30.10;32.50